PWSweather.com
Personal Weather Stations
Station Observations
IBAVARIA50
Munich, PlieningDE 85652

MunichPlieningDE 85652

Lat: 48.19916153, Lon: 11.79794312

Elevation: 504

Station Type: Davis Vantage Pro2

http://wetterstation-pliening.info

Latest ConditionsUpdated 1:05:05 PM GMT+01:01 Friday, Jun 23, 2017
Currently Today's Max Today's Min Today's Average
Temperature 87.1°F30.6°C 87.1°F30.6°C 75.0°F23.9°C 79.1°F26.2°C
Dew Point 64.3°F17.9°C 64.3°F17.9°C 59.1°F15.1°C 62.2°F16.8°C
Winds 10.0 mph NW16.1 kmh NW 22.0 mph WNW35.4 kmh WNW - 6.5 mph 10.5 kmh
Wind Gusts 18.0 mph29.0 kmh 27.0 mph43.5 kmh - -
Humidity 47% 65% 46% 57%
Pressure 29.86 in1011.2 mb 29.90 in1012.5 mb 29.79 in1008.8 mb -
Precipitation - 0.01 in0.3 mm - -
Hour Temp Dew Point Humidity Winds Wind Gusts Pressure Precip Precip Rate Daily Precip Total
01:05 PM 87.1°F30.6°C 64.3°F17.9°C 47% 10.0 mph NW16.1 kmh NW 18.0 mph29.0 kmh 29.86 in1011.2 mb 0.00 in0.0 mm 0.00 in0.0 mm 0.01 in0.3 mm
01:00 PM 86.8°F30.4°C 63.4°F17.4°C 46% 5.0 mph WSW8.0 kmh WSW 25.0 mph40.2 kmh 29.87 in1011.5 mb 0.00 in0.0 mm 0.00 in0.0 mm 0.01 in0.3 mm
12:55 PM 86.9°F30.5°C 63.5°F17.5°C 46% 14.0 mph WNW22.5 kmh WNW 25.0 mph40.2 kmh 29.87 in1011.5 mb 0.00 in0.0 mm 0.00 in0.0 mm 0.01 in0.3 mm
12:50 PM 86.6°F30.3°C 63.9°F17.7°C 47% 12.0 mph NNW19.3 kmh NNW 23.0 mph37.0 kmh 29.87 in1011.5 mb 0.00 in0.0 mm 0.00 in0.0 mm 0.01 in0.3 mm
12:45 PM 86.2°F30.1°C 64.1°F17.8°C 48% 11.0 mph NW17.7 kmh NW 20.0 mph32.2 kmh 29.87 in1011.5 mb 0.00 in0.0 mm 0.00 in0.0 mm 0.01 in0.3 mm
12:40 PM 85.9°F29.9°C 63.8°F17.7°C 48% 16.0 mph WNW25.7 kmh WNW 23.0 mph37.0 kmh 29.88 in1011.9 mb 0.00 in0.0 mm 0.00 in0.0 mm 0.01 in0.3 mm
12:35 PM 86.0°F30.0°C 63.3°F17.4°C 47% 12.0 mph W19.3 kmh W 19.0 mph30.6 kmh 29.87 in1011.5 mb 0.00 in0.0 mm 0.00 in0.0 mm 0.01 in0.3 mm
12:30 PM 86.2°F30.1°C 64.1°F17.8°C 48% 10.0 mph W16.1 kmh W 19.0 mph30.6 kmh 29.87 in1011.5 mb 0.00 in0.0 mm 0.00 in0.0 mm 0.01 in0.3 mm
12:25 PM 85.7°F29.8°C 63.7°F17.6°C 48% 4.0 mph WSW6.4 kmh WSW 22.0 mph35.4 kmh 29.87 in1011.5 mb 0.00 in0.0 mm 0.00 in0.0 mm 0.01 in0.3 mm
12:20 PM 85.4°F29.7°C 63.4°F17.4°C 48% 13.0 mph WNW20.9 kmh WNW 23.0 mph37.0 kmh 29.88 in1011.9 mb 0.00 in0.0 mm 0.00 in0.0 mm 0.01 in0.3 mm
12:15 PM 85.0°F29.4°C 63.6°F17.6°C 49% 12.0 mph WNW19.3 kmh WNW 16.0 mph25.7 kmh 29.88 in1011.9 mb 0.00 in0.0 mm 0.00 in0.0 mm 0.01 in0.3 mm
12:10 PM 85.0°F29.4°C 63.6°F17.6°C 49% 2.0 mph NW3.2 kmh NW 20.0 mph32.2 kmh 29.88 in1011.9 mb 0.00 in0.0 mm 0.00 in0.0 mm 0.01 in0.3 mm
12:05 PM 84.5°F29.2°C 63.7°F17.6°C 50% 6.0 mph WSW9.7 kmh WSW 20.0 mph32.2 kmh 29.88 in1011.9 mb 0.00 in0.0 mm 0.00 in0.0 mm 0.01 in0.3 mm
12:00 PM 84.1°F28.9°C 62.8°F17.1°C 49% 10.0 mph WNW16.1 kmh WNW 22.0 mph35.4 kmh 29.88 in1011.9 mb 0.00 in0.0 mm 0.00 in0.0 mm 0.01 in0.3 mm
11:55 AM 84.3°F29.1°C 63.0°F17.2°C 49% 22.0 mph WNW35.4 kmh WNW 20.0 mph32.2 kmh 29.88 in1011.9 mb 0.00 in0.0 mm 0.00 in0.0 mm 0.01 in0.3 mm
11:50 AM 84.2°F29.0°C 62.9°F17.2°C 49% 13.0 mph WNW20.9 kmh WNW 27.0 mph43.5 kmh 29.89 in1012.2 mb 0.00 in0.0 mm 0.00 in0.0 mm 0.01 in0.3 mm
11:45 AM 84.5°F29.2°C 63.2°F17.3°C 49% 18.0 mph WNW29.0 kmh WNW 24.0 mph38.6 kmh 29.88 in1011.9 mb 0.00 in0.0 mm 0.00 in0.0 mm 0.01 in0.3 mm
11:40 AM 84.2°F29.0°C 64.0°F17.8°C 51% 6.0 mph WSW9.7 kmh WSW 26.0 mph41.8 kmh 29.88 in1011.9 mb 0.00 in0.0 mm 0.00 in0.0 mm 0.01 in0.3 mm
11:35 AM 83.6°F28.7°C 62.3°F16.8°C 49% 5.0 mph W8.0 kmh W 26.0 mph41.8 kmh 29.88 in1011.9 mb 0.00 in0.0 mm 0.00 in0.0 mm 0.01 in0.3 mm
11:30 AM 83.3°F28.5°C 63.8°F17.7°C 52% 11.0 mph W17.7 kmh W 18.0 mph29.0 kmh 29.88 in1011.9 mb 0.00 in0.0 mm 0.00 in0.0 mm 0.01 in0.3 mm
11:25 AM 83.0°F28.3°C 63.5°F17.5°C 52% 4.0 mph W6.4 kmh W 14.0 mph22.5 kmh 29.88 in1011.9 mb 0.00 in0.0 mm 0.00 in0.0 mm 0.01 in0.3 mm
11:20 AM 82.9°F28.3°C 63.4°F17.4°C 52% 7.0 mph WNW11.3 kmh WNW 14.0 mph22.5 kmh 29.89 in1012.2 mb 0.00 in0.0 mm 0.00 in0.0 mm 0.01 in0.3 mm
11:15 AM 82.6°F28.1°C 63.7°F17.6°C 53% 2.0 mph W3.2 kmh W 24.0 mph38.6 kmh 29.89 in1012.2 mb 0.00 in0.0 mm 0.00 in0.0 mm 0.01 in0.3 mm
11:10 AM 82.5°F28.1°C 63.6°F17.6°C 53% 9.0 mph W14.5 kmh W 19.0 mph30.6 kmh 29.89 in1012.2 mb 0.00 in0.0 mm 0.00 in0.0 mm 0.01 in0.3 mm
11:05 AM 82.5°F28.1°C 63.0°F17.2°C 52% 10.0 mph W16.1 kmh W 21.0 mph33.8 kmh 29.89 in1012.2 mb 0.00 in0.0 mm 0.00 in0.0 mm 0.01 in0.3 mm
11:00 AM 82.4°F28.0°C 63.5°F17.5°C 53% 11.0 mph WNW17.7 kmh WNW 15.0 mph24.1 kmh 29.90 in1012.5 mb 0.00 in0.0 mm 0.00 in0.0 mm 0.01 in0.3 mm
10:55 AM 82.1°F27.8°C 63.2°F17.3°C 53% 11.0 mph W17.7 kmh W 22.0 mph35.4 kmh 29.90 in1012.5 mb 0.00 in0.0 mm 0.00 in0.0 mm 0.01 in0.3 mm
10:50 AM 81.8°F27.7°C 63.5°F17.5°C 54% 7.0 mph NW11.3 kmh NW 12.0 mph19.3 kmh 29.90 in1012.5 mb 0.00 in0.0 mm 0.00 in0.0 mm 0.01 in0.3 mm
10:45 AM 81.4°F27.4°C 63.1°F17.3°C 54% 6.0 mph W9.7 kmh W 20.0 mph32.2 kmh 29.90 in1012.5 mb 0.00 in0.0 mm 0.00 in0.0 mm 0.01 in0.3 mm
10:40 AM 81.0°F27.2°C 62.7°F17.1°C 54% 5.0 mph W8.0 kmh W 17.0 mph27.4 kmh 29.90 in1012.5 mb 0.00 in0.0 mm 0.00 in0.0 mm 0.01 in0.3 mm
10:35 AM 80.9°F27.2°C 62.6°F17.0°C 54% 4.0 mph W6.4 kmh W 14.0 mph22.5 kmh 29.90 in1012.5 mb 0.00 in0.0 mm 0.00 in0.0 mm 0.01 in0.3 mm
10:30 AM 81.1°F27.3°C 62.8°F17.1°C 54% 11.0 mph WNW17.7 kmh WNW 13.0 mph20.9 kmh 29.90 in1012.5 mb 0.00 in0.0 mm 0.00 in0.0 mm 0.01 in0.3 mm
10:25 AM 81.3°F27.4°C 63.0°F17.2°C 54% 6.0 mph NW9.7 kmh NW 14.0 mph22.5 kmh 29.90 in1012.5 mb 0.00 in0.0 mm 0.00 in0.0 mm 0.01 in0.3 mm
10:20 AM 81.5°F27.5°C 62.6°F17.0°C 53% 12.0 mph W19.3 kmh W 14.0 mph22.5 kmh 29.90 in1012.5 mb 0.00 in0.0 mm 0.00 in0.0 mm 0.01 in0.3 mm
10:15 AM 81.5°F27.5°C 63.2°F17.3°C 54% 4.0 mph WSW6.4 kmh WSW 14.0 mph22.5 kmh 29.90 in1012.5 mb 0.00 in0.0 mm 0.00 in0.0 mm 0.01 in0.3 mm
10:10 AM 81.6°F27.6°C 63.3°F17.4°C 54% 11.0 mph WNW17.7 kmh WNW 18.0 mph29.0 kmh 29.90 in1012.5 mb 0.00 in0.0 mm 0.00 in0.0 mm 0.01 in0.3 mm
10:05 AM 81.7°F27.6°C 62.3°F16.8°C 52% 13.0 mph W20.9 kmh W 18.0 mph29.0 kmh 29.90 in1012.5 mb 0.00 in0.0 mm 0.00 in0.0 mm 0.01 in0.3 mm
10:00 AM 81.7°F27.6°C 62.8°F17.1°C 53% 12.0 mph W19.3 kmh W 17.0 mph27.4 kmh 29.90 in1012.5 mb 0.00 in0.0 mm 0.00 in0.0 mm 0.01 in0.3 mm
09:55 AM 81.5°F27.5°C 63.2°F17.3°C 54% 4.0 mph W6.4 kmh W 12.0 mph19.3 kmh 29.90 in1012.5 mb 0.00 in0.0 mm 0.00 in0.0 mm 0.01 in0.3 mm
09:50 AM 81.2°F27.3°C 63.4°F17.4°C 55% 4.0 mph W6.4 kmh W 12.0 mph19.3 kmh 29.89 in1012.2 mb 0.00 in0.0 mm 0.00 in0.0 mm 0.01 in0.3 mm
09:45 AM 80.9°F27.2°C 63.1°F17.3°C 55% 12.0 mph NNW19.3 kmh NNW 14.0 mph22.5 kmh 29.89 in1012.2 mb 0.00 in0.0 mm 0.00 in0.0 mm 0.01 in0.3 mm
09:40 AM 80.3°F26.8°C 63.1°F17.3°C 56% Calm Calm 10.0 mph16.1 kmh 29.90 in1012.5 mb 0.00 in0.0 mm 0.00 in0.0 mm 0.01 in0.3 mm
09:35 AM 79.8°F26.6°C 62.6°F17.0°C 56% 5.0 mph W8.0 kmh W 12.0 mph19.3 kmh 29.90 in1012.5 mb 0.00 in0.0 mm 0.00 in0.0 mm 0.01 in0.3 mm
09:30 AM 79.6°F26.4°C 61.9°F16.6°C 55% 8.0 mph W12.9 kmh W 11.0 mph17.7 kmh 29.90 in1012.5 mb 0.00 in0.0 mm 0.00 in0.0 mm 0.01 in0.3 mm
09:25 AM 79.6°F26.4°C 61.9°F16.6°C 55% 4.0 mph WSW6.4 kmh WSW 14.0 mph22.5 kmh 29.89 in1012.2 mb 0.00 in0.0 mm 0.00 in0.0 mm 0.01 in0.3 mm
09:20 AM 79.6°F26.4°C 61.9°F16.6°C 55% 4.0 mph W6.4 kmh W 10.0 mph16.1 kmh 29.90 in1012.5 mb 0.00 in0.0 mm 0.00 in0.0 mm 0.01 in0.3 mm
09:15 AM 79.6°F26.4°C 61.9°F16.6°C 55% 4.0 mph WSW6.4 kmh WSW 11.0 mph17.7 kmh 29.89 in1012.2 mb 0.00 in0.0 mm 0.00 in0.0 mm 0.01 in0.3 mm
09:10 AM 79.7°F26.5°C 62.0°F16.7°C 55% 10.0 mph WSW16.1 kmh WSW 14.0 mph22.5 kmh 29.89 in1012.2 mb 0.00 in0.0 mm 0.00 in0.0 mm 0.01 in0.3 mm
09:05 AM 79.6°F26.4°C 61.4°F16.3°C 54% 6.0 mph WNW9.7 kmh WNW 15.0 mph24.1 kmh 29.89 in1012.2 mb 0.00 in0.0 mm 0.00 in0.0 mm 0.01 in0.3 mm
09:00 AM 79.5°F26.4°C 61.8°F16.6°C 55% 9.0 mph W14.5 kmh W 12.0 mph19.3 kmh 29.88 in1011.9 mb 0.00 in0.0 mm 0.00 in0.0 mm 0.01 in0.3 mm
08:55 AM 79.4°F26.3°C 61.8°F16.6°C 55% 5.0 mph WNW8.0 kmh WNW 14.0 mph22.5 kmh 29.89 in1012.2 mb 0.00 in0.0 mm 0.00 in0.0 mm 0.01 in0.3 mm
08:50 AM 79.4°F26.3°C 61.8°F16.6°C 55% 6.0 mph WNW9.7 kmh WNW 13.0 mph20.9 kmh 29.88 in1011.9 mb 0.00 in0.0 mm 0.00 in0.0 mm 0.01 in0.3 mm
08:45 AM 79.4°F26.3°C 61.2°F16.2°C 54% 5.0 mph WSW8.0 kmh WSW 17.0 mph27.4 kmh 29.88 in1011.9 mb 0.00 in0.0 mm 0.00 in0.0 mm 0.01 in0.3 mm
08:40 AM 79.5°F26.4°C 61.3°F16.3°C 54% 9.0 mph NW14.5 kmh NW 17.0 mph27.4 kmh 29.88 in1011.9 mb 0.00 in0.0 mm 0.00 in0.0 mm 0.01 in0.3 mm
08:35 AM 79.4°F26.3°C 60.7°F15.9°C 53% 10.0 mph WNW16.1 kmh WNW 20.0 mph32.2 kmh 29.88 in1011.9 mb 0.00 in0.0 mm 0.00 in0.0 mm 0.01 in0.3 mm
08:30 AM 79.3°F26.3°C 61.7°F16.5°C 55% 6.0 mph W9.7 kmh W 24.0 mph38.6 kmh 29.88 in1011.9 mb 0.00 in0.0 mm 0.00 in0.0 mm 0.01 in0.3 mm
08:25 AM 79.3°F26.3°C 62.2°F16.8°C 56% 15.0 mph W24.1 kmh W 20.0 mph32.2 kmh 29.88 in1011.9 mb 0.00 in0.0 mm 0.00 in0.0 mm 0.01 in0.3 mm
08:20 AM 79.3°F26.3°C 62.7°F17.1°C 57% 7.0 mph W11.3 kmh W 14.0 mph22.5 kmh 29.88 in1011.9 mb 0.00 in0.0 mm 0.00 in0.0 mm 0.01 in0.3 mm
08:15 AM 79.2°F26.2°C 62.6°F17.0°C 57% 9.0 mph WSW14.5 kmh WSW 16.0 mph25.7 kmh 29.88 in1011.9 mb 0.00 in0.0 mm 0.00 in0.0 mm 0.01 in0.3 mm
08:10 AM 79.1°F26.2°C 63.0°F17.2°C 58% 4.0 mph W6.4 kmh W 12.0 mph19.3 kmh 29.87 in1011.5 mb 0.00 in0.0 mm 0.00 in0.0 mm 0.01 in0.3 mm
08:05 AM 78.7°F25.9°C 62.6°F17.0°C 58% 3.0 mph WSW4.8 kmh WSW 14.0 mph22.5 kmh 29.87 in1011.5 mb 0.00 in0.0 mm 0.00 in0.0 mm 0.01 in0.3 mm
08:00 AM 78.9°F26.1°C 62.3°F16.8°C 57% 4.0 mph W6.4 kmh W 22.0 mph35.4 kmh 29.87 in1011.5 mb 0.00 in0.0 mm 0.00 in0.0 mm 0.01 in0.3 mm
07:55 AM 79.2°F26.2°C 62.6°F17.0°C 57% 12.0 mph W19.3 kmh W 22.0 mph35.4 kmh 29.87 in1011.5 mb 0.00 in0.0 mm 0.00 in0.0 mm 0.01 in0.3 mm
07:50 AM 79.4°F26.3°C 62.8°F17.1°C 57% 6.0 mph SSW9.7 kmh SSW 18.0 mph29.0 kmh 29.87 in1011.5 mb 0.00 in0.0 mm 0.00 in0.0 mm 0.01 in0.3 mm
07:45 AM 79.4°F26.3°C 62.8°F17.1°C 57% 4.0 mph W6.4 kmh W 21.0 mph33.8 kmh 29.87 in1011.5 mb 0.00 in0.0 mm 0.00 in0.0 mm 0.01 in0.3 mm
07:40 AM 79.6°F26.4°C 63.0°F17.2°C 57% 4.0 mph WSW6.4 kmh WSW 21.0 mph33.8 kmh 29.87 in1011.5 mb 0.00 in0.0 mm 0.00 in0.0 mm 0.01 in0.3 mm
07:35 AM 79.8°F26.6°C 63.1°F17.3°C 57% 11.0 mph W17.7 kmh W 21.0 mph33.8 kmh 29.86 in1011.2 mb 0.00 in0.0 mm 0.00 in0.0 mm 0.01 in0.3 mm
07:30 AM 79.6°F26.4°C 63.0°F17.2°C 57% 17.0 mph WNW27.4 kmh WNW 18.0 mph29.0 kmh 29.86 in1011.2 mb 0.00 in0.0 mm 0.00 in0.0 mm 0.01 in0.3 mm
07:25 AM 79.4°F26.3°C 62.8°F17.1°C 57% 6.0 mph WSW9.7 kmh WSW 19.0 mph30.6 kmh 29.86 in1011.2 mb 0.00 in0.0 mm 0.00 in0.0 mm 0.01 in0.3 mm
07:20 AM 79.1°F26.2°C 62.5°F16.9°C 57% 13.0 mph W20.9 kmh W 15.0 mph24.1 kmh 29.86 in1011.2 mb 0.00 in0.0 mm 0.00 in0.0 mm 0.01 in0.3 mm
07:15 AM 78.7°F25.9°C 62.1°F16.7°C 57% 10.0 mph WNW16.1 kmh WNW 18.0 mph29.0 kmh 29.86 in1011.2 mb 0.00 in0.0 mm 0.00 in0.0 mm 0.01 in0.3 mm
07:10 AM 78.6°F25.9°C 62.5°F16.9°C 58% 6.0 mph WSW9.7 kmh WSW 15.0 mph24.1 kmh 29.86 in1011.2 mb 0.00 in0.0 mm 0.00 in0.0 mm 0.01 in0.3 mm
07:05 AM 78.2°F25.7°C 62.6°F17.0°C 59% 6.0 mph WNW9.7 kmh WNW 12.0 mph19.3 kmh 29.86 in1011.2 mb 0.00 in0.0 mm 0.00 in0.0 mm 0.01 in0.3 mm
07:00 AM 78.0°F25.6°C 62.0°F16.7°C 58% 10.0 mph W16.1 kmh W 14.0 mph22.5 kmh 29.86 in1011.2 mb 0.00 in0.0 mm 0.00 in0.0 mm 0.01 in0.3 mm
06:55 AM 77.7°F25.4°C 61.7°F16.5°C 58% 11.0 mph WSW17.7 kmh WSW 14.0 mph22.5 kmh 29.85 in1010.8 mb 0.00 in0.0 mm 0.00 in0.0 mm 0.01 in0.3 mm
06:50 AM 77.5°F25.3°C 62.0°F16.7°C 59% 5.0 mph W8.0 kmh W 12.0 mph19.3 kmh 29.85 in1010.8 mb 0.00 in0.0 mm 0.00 in0.0 mm 0.01 in0.3 mm
06:45 AM 77.1°F25.1°C 61.6°F16.4°C 59% 4.0 mph WSW6.4 kmh WSW 15.0 mph24.1 kmh 29.86 in1011.2 mb 0.00 in0.0 mm 0.00 in0.0 mm 0.01 in0.3 mm
06:40 AM 77.0°F25.0°C 61.5°F16.4°C 59% 1.0 mph W1.6 kmh W 15.0 mph24.1 kmh 29.85 in1010.8 mb 0.00 in0.0 mm 0.00 in0.0 mm 0.01 in0.3 mm
06:35 AM 76.9°F24.9°C 61.9°F16.6°C 60% 7.0 mph WSW11.3 kmh WSW 14.0 mph22.5 kmh 29.86 in1011.2 mb 0.00 in0.0 mm 0.00 in0.0 mm 0.01 in0.3 mm
06:30 AM 76.9°F24.9°C 61.9°F16.6°C 60% 4.0 mph WSW6.4 kmh WSW 11.0 mph17.7 kmh 29.86 in1011.2 mb 0.00 in0.0 mm 0.00 in0.0 mm 0.01 in0.3 mm
06:25 AM 76.9°F24.9°C 61.9°F16.6°C 60% 12.0 mph W19.3 kmh W 13.0 mph20.9 kmh 29.85 in1010.8 mb 0.00 in0.0 mm 0.00 in0.0 mm 0.01 in0.3 mm
06:20 AM 77.0°F25.0°C 62.0°F16.7°C 60% 5.0 mph WSW8.0 kmh WSW 13.0 mph20.9 kmh 29.85 in1010.8 mb 0.00 in0.0 mm 0.00 in0.0 mm 0.01 in0.3 mm
06:15 AM 77.0°F25.0°C 62.4°F16.9°C 61% 7.0 mph WSW11.3 kmh WSW 13.0 mph20.9 kmh 29.85 in1010.8 mb 0.00 in0.0 mm 0.00 in0.0 mm 0.01 in0.3 mm
06:10 AM 76.8°F24.9°C 62.3°F16.8°C 61% 6.0 mph W9.7 kmh W 13.0 mph20.9 kmh 29.85 in1010.8 mb 0.00 in0.0 mm 0.00 in0.0 mm 0.01 in0.3 mm
06:05 AM 76.6°F24.8°C 62.1°F16.7°C 61% 5.0 mph WNW8.0 kmh WNW 16.0 mph25.7 kmh 29.85 in1010.8 mb 0.00 in0.0 mm 0.00 in0.0 mm 0.01 in0.3 mm
06:00 AM 76.5°F24.7°C 62.0°F16.7°C 61% 6.0 mph W9.7 kmh W 11.0 mph17.7 kmh 29.84 in1010.5 mb 0.00 in0.0 mm 0.00 in0.0 mm 0.01 in0.3 mm
05:55 AM 76.4°F24.7°C 61.9°F16.6°C 61% 4.0 mph WNW6.4 kmh WNW 11.0 mph17.7 kmh 29.84 in1010.5 mb 0.00 in0.0 mm 0.00 in0.0 mm 0.01 in0.3 mm
05:50 AM 76.3°F24.6°C 61.8°F16.6°C 61% 2.0 mph SW3.2 kmh SW 11.0 mph17.7 kmh 29.84 in1010.5 mb 0.00 in0.0 mm 0.00 in0.0 mm 0.01 in0.3 mm
05:45 AM 76.4°F24.7°C 61.9°F16.6°C 61% 4.0 mph SW6.4 kmh SW 14.0 mph22.5 kmh 29.84 in1010.5 mb 0.00 in0.0 mm 0.00 in0.0 mm 0.01 in0.3 mm
05:40 AM 76.4°F24.7°C 61.9°F16.6°C 61% 5.0 mph W8.0 kmh W 13.0 mph20.9 kmh 29.84 in1010.5 mb 0.00 in0.0 mm 0.00 in0.0 mm 0.01 in0.3 mm
05:35 AM 76.4°F24.7°C 61.9°F16.6°C 61% 10.0 mph WNW16.1 kmh WNW 12.0 mph19.3 kmh 29.83 in1010.2 mb 0.00 in0.0 mm 0.00 in0.0 mm 0.01 in0.3 mm
05:30 AM 76.3°F24.6°C 62.3°F16.8°C 62% 10.0 mph WSW16.1 kmh WSW 14.0 mph22.5 kmh 29.83 in1010.2 mb 0.00 in0.0 mm 0.00 in0.0 mm 0.01 in0.3 mm
05:25 AM 76.2°F24.6°C 62.2°F16.8°C 62% 9.0 mph W14.5 kmh W 19.0 mph30.6 kmh 29.83 in1010.2 mb 0.00 in0.0 mm 0.00 in0.0 mm 0.01 in0.3 mm
05:20 AM 76.0°F24.4°C 62.0°F16.7°C 62% 6.0 mph SW9.7 kmh SW 13.0 mph20.9 kmh 29.82 in1009.8 mb 0.00 in0.0 mm 0.00 in0.0 mm 0.01 in0.3 mm
05:15 AM 75.9°F24.4°C 61.9°F16.6°C 62% 5.0 mph WSW8.0 kmh WSW 10.0 mph16.1 kmh 29.83 in1010.2 mb 0.00 in0.0 mm 0.00 in0.0 mm 0.01 in0.3 mm
05:10 AM 75.8°F24.3°C 61.8°F16.6°C 62% 4.0 mph W6.4 kmh W 10.0 mph16.1 kmh 29.82 in1009.8 mb 0.00 in0.0 mm 0.00 in0.0 mm 0.01 in0.3 mm
05:05 AM 75.7°F24.3°C 61.7°F16.5°C 62% 5.0 mph W8.0 kmh W 12.0 mph19.3 kmh 29.82 in1009.8 mb 0.00 in0.0 mm 0.00 in0.0 mm 0.01 in0.3 mm
05:00 AM 75.7°F24.3°C 61.7°F16.5°C 62% 6.0 mph W9.7 kmh W 10.0 mph16.1 kmh 29.82 in1009.8 mb 0.00 in0.0 mm 0.00 in0.0 mm 0.01 in0.3 mm
04:55 AM 75.6°F24.2°C 61.6°F16.4°C 62% 6.0 mph WSW9.7 kmh WSW 9.0 mph14.5 kmh 29.82 in1009.8 mb 0.00 in0.0 mm 0.00 in0.0 mm 0.01 in0.3 mm
04:50 AM 75.6°F24.2°C 61.6°F16.4°C 62% 6.0 mph W9.7 kmh W 10.0 mph16.1 kmh 29.82 in1009.8 mb 0.00 in0.0 mm 0.00 in0.0 mm 0.01 in0.3 mm
04:45 AM 75.6°F24.2°C 61.6°F16.4°C 62% 2.0 mph SW3.2 kmh SW 10.0 mph16.1 kmh 29.82 in1009.8 mb 0.00 in0.0 mm 0.00 in0.0 mm 0.01 in0.3 mm
04:40 AM 75.5°F24.2°C 61.5°F16.4°C 62% 9.0 mph SW14.5 kmh SW 13.0 mph20.9 kmh 29.82 in1009.8 mb 0.00 in0.0 mm 0.00 in0.0 mm 0.01 in0.3 mm
04:35 AM 75.6°F24.2°C 61.6°F16.4°C 62% 5.0 mph SW8.0 kmh SW 8.0 mph12.9 kmh 29.82 in1009.8 mb 0.00 in0.0 mm 0.00 in0.0 mm 0.01 in0.3 mm
04:30 AM 75.6°F24.2°C 61.6°F16.4°C 62% 4.0 mph SW6.4 kmh SW 7.0 mph11.3 kmh 29.81 in1009.5 mb 0.00 in0.0 mm 0.00 in0.0 mm 0.01 in0.3 mm
04:25 AM 75.7°F24.3°C 61.7°F16.5°C 62% 2.0 mph WSW3.2 kmh WSW 7.0 mph11.3 kmh 29.81 in1009.5 mb 0.00 in0.0 mm 0.00 in0.0 mm 0.01 in0.3 mm
04:20 AM 75.8°F24.3°C 61.8°F16.6°C 62% 4.0 mph WSW6.4 kmh WSW 10.0 mph16.1 kmh 29.81 in1009.5 mb 0.00 in0.0 mm 0.00 in0.0 mm 0.01 in0.3 mm
04:15 AM 75.8°F24.3°C 61.8°F16.6°C 62% 7.0 mph SW11.3 kmh SW 10.0 mph16.1 kmh 29.81 in1009.5 mb 0.00 in0.0 mm 0.00 in0.0 mm 0.01 in0.3 mm
04:10 AM 75.9°F24.4°C 61.9°F16.6°C 62% 3.0 mph WSW4.8 kmh WSW 11.0 mph17.7 kmh 29.81 in1009.5 mb 0.00 in0.0 mm 0.00 in0.0 mm 0.01 in0.3 mm
04:05 AM 76.1°F24.5°C 61.6°F16.4°C 61% 5.0 mph WNW8.0 kmh WNW 10.0 mph16.1 kmh 29.80 in1009.1 mb 0.00 in0.0 mm 0.00 in0.0 mm 0.01 in0.3 mm
04:00 AM 76.4°F24.7°C 61.9°F16.6°C 61% 5.0 mph WSW8.0 kmh WSW 7.0 mph11.3 kmh 29.80 in1009.1 mb 0.00 in0.0 mm 0.00 in0.0 mm 0.01 in0.3 mm
03:55 AM 76.6°F24.8°C 61.6°F16.4°C 60% 4.0 mph WNW6.4 kmh WNW 9.0 mph14.5 kmh 29.80 in1009.1 mb 0.00 in0.0 mm 0.00 in0.0 mm 0.01 in0.3 mm
03:50 AM 76.8°F24.9°C 61.8°F16.6°C 60% 1.0 mph W1.6 kmh W 12.0 mph19.3 kmh 29.80 in1009.1 mb 0.00 in0.0 mm 0.00 in0.0 mm 0.01 in0.3 mm
03:45 AM 77.0°F25.0°C 62.0°F16.7°C 60% 7.0 mph SW11.3 kmh SW 12.0 mph19.3 kmh 29.80 in1009.1 mb 0.00 in0.0 mm 0.00 in0.0 mm 0.01 in0.3 mm
03:40 AM 77.0°F25.0°C 62.0°F16.7°C 60% 2.0 mph WSW3.2 kmh WSW 11.0 mph17.7 kmh 29.80 in1009.1 mb 0.00 in0.0 mm 0.00 in0.0 mm 0.01 in0.3 mm
03:35 AM 77.0°F25.0°C 62.0°F16.7°C 60% 4.0 mph WNW6.4 kmh WNW 12.0 mph19.3 kmh 29.80 in1009.1 mb 0.00 in0.0 mm 0.00 in0.0 mm 0.01 in0.3 mm
03:30 AM 77.0°F25.0°C 62.0°F16.7°C 60% 4.0 mph SW6.4 kmh SW 12.0 mph19.3 kmh 29.80 in1009.1 mb 0.00 in0.0 mm 0.00 in0.0 mm 0.01 in0.3 mm
03:25 AM 77.0°F25.0°C 62.0°F16.7°C 60% 3.0 mph SW4.8 kmh SW 15.0 mph24.1 kmh 29.80 in1009.1 mb 0.00 in0.0 mm 0.00 in0.0 mm 0.01 in0.3 mm
03:20 AM 77.0°F25.0°C 62.0°F16.7°C 60% Calm Calm 11.0 mph17.7 kmh 29.80 in1009.1 mb 0.00 in0.0 mm 0.00 in0.0 mm 0.01 in0.3 mm
03:15 AM 77.0°F25.0°C 62.0°F16.7°C 60% 1.0 mph WSW1.6 kmh WSW 11.0 mph17.7 kmh 29.80 in1009.1 mb 0.00 in0.0 mm 0.00 in0.0 mm 0.01 in0.3 mm
03:10 AM 77.0°F25.0°C 62.0°F16.7°C 60% 1.0 mph SW1.6 kmh SW 15.0 mph24.1 kmh 29.80 in1009.1 mb 0.00 in0.0 mm 0.00 in0.0 mm 0.01 in0.3 mm
03:05 AM 77.1°F25.1°C 61.6°F16.4°C 59% 4.0 mph W6.4 kmh W 10.0 mph16.1 kmh 29.80 in1009.1 mb 0.00 in0.0 mm 0.00 in0.0 mm 0.01 in0.3 mm
03:00 AM 77.3°F25.2°C 61.8°F16.6°C 59% 1.0 mph W1.6 kmh W 9.0 mph14.5 kmh 29.80 in1009.1 mb 0.00 in0.0 mm 0.00 in0.0 mm 0.01 in0.3 mm
02:55 AM 77.4°F25.2°C 61.9°F16.6°C 59% 3.0 mph SW4.8 kmh SW 7.0 mph11.3 kmh 29.80 in1009.1 mb 0.00 in0.0 mm 0.00 in0.0 mm 0.01 in0.3 mm
02:50 AM 77.6°F25.3°C 61.6°F16.4°C 58% 2.0 mph W3.2 kmh W 7.0 mph11.3 kmh 29.80 in1009.1 mb 0.00 in0.0 mm 0.00 in0.0 mm 0.01 in0.3 mm
02:45 AM 77.9°F25.5°C 61.9°F16.6°C 58% 4.0 mph WSW6.4 kmh WSW 5.0 mph8.0 kmh 29.80 in1009.1 mb 0.00 in0.0 mm 0.00 in0.0 mm 0.01 in0.3 mm
02:40 AM 78.1°F25.6°C 62.0°F16.7°C 58% 5.0 mph WSW8.0 kmh WSW 9.0 mph14.5 kmh 29.80 in1009.1 mb 0.00 in0.0 mm 0.00 in0.0 mm 0.01 in0.3 mm
02:35 AM 78.3°F25.7°C 61.7°F16.5°C 57% 2.0 mph SW3.2 kmh SW 12.0 mph19.3 kmh 29.80 in1009.1 mb 0.00 in0.0 mm 0.00 in0.0 mm 0.01 in0.3 mm
02:30 AM 78.4°F25.8°C 61.8°F16.6°C 57% 4.0 mph WSW6.4 kmh WSW 18.0 mph29.0 kmh 29.80 in1009.1 mb 0.00 in0.0 mm 0.00 in0.0 mm 0.01 in0.3 mm
02:25 AM 78.4°F25.8°C 61.8°F16.6°C 57% 6.0 mph SW9.7 kmh SW 13.0 mph20.9 kmh 29.80 in1009.1 mb 0.00 in0.0 mm 0.00 in0.0 mm 0.01 in0.3 mm
02:20 AM 78.4°F25.8°C 61.8°F16.6°C 57% 3.0 mph WSW4.8 kmh WSW 13.0 mph20.9 kmh 29.80 in1009.1 mb 0.00 in0.0 mm 0.00 in0.0 mm 0.01 in0.3 mm
02:15 AM 78.5°F25.8°C 61.9°F16.6°C 57% 2.0 mph SW3.2 kmh SW 10.0 mph16.1 kmh 29.80 in1009.1 mb 0.00 in0.0 mm 0.00 in0.0 mm 0.01 in0.3 mm
02:10 AM 78.5°F25.8°C 61.9°F16.6°C 57% 4.0 mph WSW6.4 kmh WSW 14.0 mph22.5 kmh 29.79 in1008.8 mb 0.00 in0.0 mm 0.00 in0.0 mm 0.01 in0.3 mm
02:05 AM 78.5°F25.8°C 61.9°F16.6°C 57% 6.0 mph W9.7 kmh W 14.0 mph22.5 kmh 29.80 in1009.1 mb 0.00 in0.0 mm 0.00 in0.0 mm 0.01 in0.3 mm
02:00 AM 78.6°F25.9°C 62.0°F16.7°C 57% 3.0 mph W4.8 kmh W 15.0 mph24.1 kmh 29.79 in1008.8 mb 0.00 in0.0 mm 0.00 in0.0 mm 0.01 in0.3 mm
01:55 AM 78.6°F25.9°C 61.5°F16.4°C 56% 14.0 mph W22.5 kmh W 17.0 mph27.4 kmh 29.79 in1008.8 mb 0.00 in0.0 mm 0.00 in0.0 mm 0.01 in0.3 mm
01:50 AM 78.7°F25.9°C 61.6°F16.4°C 56% 4.0 mph W6.4 kmh W 17.0 mph27.4 kmh 29.79 in1008.8 mb 0.00 in0.0 mm 0.00 in0.0 mm 0.01 in0.3 mm
01:45 AM 78.7°F25.9°C 61.6°F16.4°C 56% 3.0 mph WSW4.8 kmh WSW 19.0 mph30.6 kmh 29.79 in1008.8 mb 0.00 in0.0 mm 0.00 in0.0 mm 0.01 in0.3 mm
01:40 AM 78.7°F25.9°C 61.6°F16.4°C 56% 13.0 mph WSW20.9 kmh WSW 20.0 mph32.2 kmh 29.79 in1008.8 mb 0.00 in0.0 mm 0.00 in0.0 mm 0.01 in0.3 mm
01:35 AM 78.4°F25.8°C 61.3°F16.3°C 56% 6.0 mph SW9.7 kmh SW 19.0 mph30.6 kmh 29.80 in1009.1 mb 0.00 in0.0 mm 0.00 in0.0 mm 0.01 in0.3 mm
01:30 AM 78.0°F25.6°C 61.5°F16.4°C 57% 9.0 mph W14.5 kmh W 17.0 mph27.4 kmh 29.79 in1008.8 mb 0.00 in0.0 mm 0.00 in0.0 mm 0.01 in0.3 mm
01:25 AM 77.6°F25.3°C 61.6°F16.4°C 58% 11.0 mph WSW17.7 kmh WSW 14.0 mph22.5 kmh 29.79 in1008.8 mb 0.00 in0.0 mm 0.00 in0.0 mm 0.01 in0.3 mm
01:20 AM 77.2°F25.1°C 61.2°F16.2°C 58% 6.0 mph WSW9.7 kmh WSW 21.0 mph33.8 kmh 29.79 in1008.8 mb 0.00 in0.0 mm 0.00 in0.0 mm 0.01 in0.3 mm
01:15 AM 76.7°F24.8°C 61.2°F16.2°C 59% 9.0 mph WSW14.5 kmh WSW 12.0 mph19.3 kmh 29.79 in1008.8 mb 0.00 in0.0 mm 0.00 in0.0 mm 0.01 in0.3 mm
01:10 AM 76.3°F24.6°C 60.8°F16.0°C 59% 2.0 mph WSW3.2 kmh WSW 11.0 mph17.7 kmh 29.79 in1008.8 mb 0.01 in0.3 mm 0.00 in0.0 mm 0.01 in0.3 mm
01:05 AM 75.8°F24.3°C 60.9°F16.1°C 60% Calm Calm 9.0 mph14.5 kmh 29.80 in1009.1 mb 0.01 in0.3 mm 0.00 in0.0 mm 0.01 in0.3 mm
01:00 AM 75.6°F24.2°C 60.7°F15.9°C 60% 7.0 mph WSW11.3 kmh WSW 10.0 mph16.1 kmh 29.80 in1009.1 mb 0.01 in0.3 mm 0.00 in0.0 mm 0.01 in0.3 mm
12:55 AM 75.5°F24.2°C 60.6°F15.9°C 60% 3.0 mph SSW4.8 kmh SSW 7.0 mph11.3 kmh 29.80 in1009.1 mb 0.01 in0.3 mm 0.00 in0.0 mm 0.01 in0.3 mm
12:50 AM 75.5°F24.2°C 60.6°F15.9°C 60% 3.0 mph SW4.8 kmh SW 9.0 mph14.5 kmh 29.80 in1009.1 mb 0.01 in0.3 mm 0.00 in0.0 mm 0.01 in0.3 mm
12:45 AM 75.5°F24.2°C 61.0°F16.1°C 61% 2.0 mph WSW3.2 kmh WSW 7.0 mph11.3 kmh 29.80 in1009.1 mb 0.01 in0.3 mm 0.00 in0.0 mm 0.01 in0.3 mm
12:40 AM 75.4°F24.1°C 60.9°F16.1°C 61% 3.0 mph WSW4.8 kmh WSW 10.0 mph16.1 kmh 29.80 in1009.1 mb 0.01 in0.3 mm 0.00 in0.0 mm 0.01 in0.3 mm
12:35 AM 75.3°F24.1°C 61.3°F16.3°C 62% 5.0 mph SW8.0 kmh SW 11.0 mph17.7 kmh 29.79 in1008.8 mb 0.01 in0.3 mm 0.00 in0.0 mm 0.01 in0.3 mm
12:30 AM 75.1°F23.9°C 61.6°F16.4°C 63% 4.0 mph WSW6.4 kmh WSW 20.0 mph32.2 kmh 29.80 in1009.1 mb 0.01 in0.3 mm 0.00 in0.0 mm 0.01 in0.3 mm
12:25 AM 75.0°F23.9°C 61.5°F16.4°C 63% 12.0 mph WSW19.3 kmh WSW 12.0 mph19.3 kmh 29.80 in1009.1 mb 0.01 in0.3 mm 0.00 in0.0 mm 0.01 in0.3 mm
12:20 AM 75.5°F24.2°C 62.8°F17.1°C 65% 2.0 mph SW3.2 kmh SW 5.0 mph8.0 kmh 29.81 in1009.5 mb 0.01 in0.3 mm 0.00 in0.0 mm 0.01 in0.3 mm
12:15 AM 76.5°F24.7°C 62.4°F16.9°C 62% 2.0 mph W3.2 kmh W 11.0 mph17.7 kmh 29.80 in1009.1 mb 0.01 in0.3 mm 0.12 in3.0 mm 0.01 in0.3 mm
12:10 AM 77.5°F25.3°C 61.5°F16.4°C 58% 2.0 mph NW3.2 kmh NW 11.0 mph17.7 kmh 29.82 in1009.8 mb 0.00 in0.0 mm 0.00 in0.0 mm 0.00 in0.0 mm
12:05 AM 77.4°F25.2°C 59.4°F15.2°C 54% 4.0 mph WSW6.4 kmh WSW 11.0 mph17.7 kmh 29.80 in1009.1 mb 0.00 in0.0 mm 0.00 in0.0 mm 0.00 in0.0 mm
12:00 AM 77.1°F25.1°C 59.1°F15.1°C 54% 5.0 mph SW8.0 kmh SW 10.0 mph16.1 kmh 29.80 in1009.1 mb 0.00 in0.0 mm 0.00 in0.0 mm 0.00 in0.0 mm